Time;durP1;ratioP1;P1;durP2;ratioP2;P2;SDS_P1;SDS_P2;PMS_P1;PMS_P2;Temp;Humidity;BMP_temperature;BMP_pressure;BME280_temperature;BME280_humidity;BME280_pressure;Samples;Min_cycle;Max_cycle;Signal;HPM_P1;HPM_P2
2022/06/08 00:01:33;;;;;;;;;;;;;;;17.52;64.25;99616.66;5065464;28;2016;-93
2022/06/08 00:03:59;;;;;;;;;;;;;;;17.51;64.01;99617.75;5046350;28;1317;-93
2022/06/08 00:06:26;;;;;;;;;;;;;;;17.51;63.98;99609.59;5052197;28;1277;-93
2022/06/08 00:08:52;;;;;;;;;;;;;;;17.49;63.97;99607.94;5066096;28;1167;-93
2022/06/08 00:11:19;;;;;;;;;;;;;;;17.49;64.10;99605.22;5071509;28;1920;-93
2022/06/08 00:13:45;;;;;;;;;;;;;;;17.49;63.85;99599.78;5050353;28;1652;-93
2022/06/08 00:16:12;;;;;;;;;;;;;;;17.46;64.12;99594.91;5047528;28;1934;-93
2022/06/08 00:18:39;;;;;;;;;;;;;;;17.47;63.96;99593.00;5060460;28;1924;-93
2022/06/08 00:21:05;;;;;;;;;;;;;;;17.45;63.91;99593.31;5039506;28;1168;-93
2022/06/08 00:23:32;;;;;;;;;;;;;;;17.46;64.21;99591.38;5049368;28;1298;-94
2022/06/08 00:25:58;;;;;;;;;;;;;;;17.45;63.92;99593.31;5072109;28;1381;-93
2022/06/08 00:28:25;;;;;;;;;;;;;;;17.44;63.99;99594.41;5061496;28;2071;-93
2022/06/08 00:30:51;;;;;;;;;;;;;;;17.44;64.01;99590.84;5068632;28;1575;-93
2022/06/08 00:33:18;;;;;;;;;;;;;;;17.43;64.04;99581.09;5054801;28;1171;-93
2022/06/08 00:35:44;;;;;;;;;;;;;;;17.41;64.13;99575.09;5054615;28;1964;-93
2022/06/08 00:38:11;;;;;;;;;;;;;;;17.41;63.78;99578.66;5050711;28;2330;-92
2022/06/08 00:40:37;;;;;;;;;;;;;;;17.40;63.98;99565.31;5056030;28;1048;-93
2022/06/08 00:43:04;;;;;;;;;;;;;;;17.40;63.98;99562.59;5051251;28;1218;-93
2022/06/08 00:45:30;;;;;;;;;;;;;;;17.38;63.92;99556.63;5035073;28;1184;-92
2022/06/08 00:47:57;;;;;;;;;;;;;;;17.38;63.83;99545.75;5052131;28;1366;-93
2022/06/08 00:50:23;;;;;;;;;;;;;;;17.37;63.91;99544.13;5054687;28;1363;-92
2022/06/08 00:52:53;;;;;;;;;;;;;;;17.36;64.05;99539.81;5066773;28;1960;-93
2022/06/08 00:55:19;;;;;;;;;;;;;;;17.36;nan;99542.53;5050725;28;1981;-93
2022/06/08 00:57:46;;;;;;;;;;;;;;;17.34;63.96;99531.91;5036690;28;1301;-92
2022/06/08 01:00:12;;;;;;;;;;;;;;;17.34;63.87;99528.38;5054420;28;1219;-93
2022/06/08 01:02:39;;;;;;;;;;;;;;;17.33;63.82;99532.22;5052606;28;1523;-92
2022/06/08 01:05:06;;;;;;;;;;;;;;;17.33;64.00;99537.66;5033417;28;2676;-93
2022/06/08 01:07:32;;;;;;;;;;;;;;;17.33;64.02;99554.00;5033843;28;2010;-93
2022/06/08 01:09:59;;;;;;;;;;;;;;;17.32;63.85;99555.06;5029090;28;1772;-92
2022/06/08 01:12:25;;;;;;;;;;;;;;;17.33;63.81;99559.44;5028035;28;1833;-92
2022/06/08 01:14:51;;;;;;;;;;;;;;;17.32;63.73;99552.34;5031324;28;1910;-93
2022/06/08 01:17:18;;;;;;;;;;;;;;;17.29;63.88;99542.03;5031088;28;1322;-93
2022/06/08 01:19:45;;;;;;;;;;;;;;;17.27;63.64;99528.75;5029714;28;1813;-93
2022/06/08 01:22:12;;;;;;;;;;;;;;;17.27;63.71;99526.00;5050154;28;1192;-93
2022/06/08 01:24:38;;;;;;;;;;;;;;;17.25;63.64;99520.84;5034089;28;1141;-93
2022/06/08 01:27:05;;;;;;;;;;;;;;;17.25;63.65;99518.13;5034456;28;1297;-93
2022/06/08 01:29:32;;;;;;;;;;;;;;;17.24;63.76;99516.53;5030814;28;1260;-93
2022/06/08 01:31:58;;;;;;;;;;;;;;;17.23;63.71;99509.44;5030164;28;1151;-93
2022/06/08 01:34:25;;;;;;;;;;;;;;;17.23;63.86;99503.19;5022454;28;1485;-93
2022/06/08 01:36:51;;;;;;;;;;;;;;;17.22;63.63;99507.81;5045769;28;1918;-93
2022/06/08 01:39:18;;;;;;;;;;;;;;;17.21;63.73;99505.41;5033919;28;1360;-93
2022/06/08 01:41:45;;;;;;;;;;;;;;;17.21;63.63;99502.69;5031961;28;1290;-93
2022/06/08 01:44:12;;;;;;;;;;;;;;;17.21;63.68;99495.31;5034185;28;1233;-93
2022/06/08 01:46:38;;;;;;;;;;;;;;;17.20;63.60;99495.59;5025654;28;4592;-93
2022/06/08 01:49:05;;;;;;;;;;;;;;;17.20;63.74;99487.44;5017956;28;2189;-93
2022/06/08 01:51:31;;;;;;;;;;;;;;;17.18;63.80;99478.78;5033561;28;1836;-93
2022/06/08 01:53:58;;;;;;;;;;;;;;;17.17;63.62;99477.94;5036063;28;1994;-92
2022/06/08 01:56:25;;;;;;;;;;;;;;;17.16;63.75;99479.06;5053600;28;1981;-93
2022/06/08 01:58:51;;;;;;;;;;;;;;;17.16;63.71;99479.06;5070126;28;1347;-93
2022/06/08 02:01:18;;;;;;;;;;;;;;;17.15;63.61;99484.81;5055207;28;1036;-93
2022/06/08 02:03:44;;;;;;;;;;;;;;;17.15;63.61;99479.34;5070609;28;1275;-93
2022/06/08 02:06:11;;;;;;;;;;;;;;;17.14;63.58;99475.81;5068554;28;1689;-91
2022/06/08 02:08:38;;;;;;;;;;;;;;;17.13;63.62;99471.47;5034401;28;1898;-92
2022/06/08 02:11:04;;;;;;;;;;;;;;;17.13;63.55;99470.66;5035690;28;1320;-93
2022/06/08 02:13:31;;;;;;;;;;;;;;;17.12;63.66;99469.03;5054167;28;1115;-93
2022/06/08 02:15:57;;;;;;;;;;;;;;;17.11;63.62;99465.50;5051100;28;2271;-93
2022/06/08 02:18:24;;;;;;;;;;;;;;;17.10;63.56;99460.38;5042518;28;1812;-93
2022/06/08 02:20:51;;;;;;;;;;;;;;;17.09;63.65;99461.44;5063955;28;1191;-92
2022/06/08 02:23:17;;;;;;;;;;;;;;;17.09;63.67;99459.56;5073848;28;1902;-93
2022/06/08 02:25:45;;;;;;;;;;;;;;;17.07;63.72;99450.88;5054232;28;1919;-92
2022/06/08 02:28:12;;;;;;;;;;;;;;;17.08;63.73;99455.19;5057148;28;1284;-93
2022/06/08 02:30:38;;;;;;;;;;;;;;;17.08;63.48;99460.63;5055609;28;1961;-92
2022/06/08 02:35:49;;;;;;;;;;;;;;;17.05;63.62;99453.06;5057320;28;1910;-93
2022/06/08 02:38:16;;;;;;;;;;;;;;;17.04;63.48;99451.44;5073887;28;1346;-93
2022/06/08 02:40:43;;;;;;;;;;;;;;;17.03;63.51;99455.28;5069551;28;1206;-92
2022/06/08 02:43:09;;;;;;;;;;;;;;;17.03;63.38;99447.94;5056199;28;1660;-92
2022/06/08 02:45:37;;;;;;;;;;;;;;;17.02;63.51;99446.28;5072493;28;2006;-93
2022/06/08 02:48:03;;;;;;;;;;;;;;;17.02;63.53;99450.91;5037998;28;964;-93
2022/06/08 02:50:30;;;;;;;;;;;;;;;17.01;63.53;99452.84;5036949;28;1287;-93
2022/06/08 02:52:56;;;;;;;;;;;;;;;17.01;63.50;99446.59;5043105;28;1614;-93
2022/06/08 02:55:23;;;;;;;;;;;;;;;16.99;63.46;99443.34;5080368;28;1910;-93
2022/06/08 02:57:49;;;;;;;;;;;;;;;16.99;63.60;99446.84;5080107;28;1298;-93
2022/06/08 03:00:16;;;;;;;;;;;;;;;16.97;63.60;99446.34;5069556;28;1793;-93
2022/06/08 03:02:42;;;;;;;;;;;;;;;16.97;63.44;99440.91;5059122;28;2110;-93
2022/06/08 03:05:09;;;;;;;;;;;;;;;16.97;63.39;99440.09;5059771;28;1198;-93
2022/06/08 03:07:35;;;;;;;;;;;;;;;16.96;63.49;99442.00;5076534;28;1258;-93
2022/06/08 03:10:02;;;;;;;;;;;;;;;16.97;63.45;99440.09;5069295;28;2888;-93
2022/06/08 03:12:29;;;;;;;;;;;;;;;16.95;63.45;99448.56;5056491;28;1159;-93
2022/06/08 03:14:56;;;;;;;;;;;;;;;16.95;63.40;99442.31;5052491;28;1267;-93
2022/06/08 03:17:22;;;;;;;;;;;;;;;16.95;63.50;99445.03;5059077;28;1979;-93
2022/06/08 03:19:49;;;;;;;;;;;;;;;16.94;63.37;99435.22;5070084;28;1548;-93
2022/06/08 03:22:16;;;;;;;;;;;;;;;16.92;63.43;99438.25;5059300;28;1175;-93
2022/06/08 03:24:43;;;;;;;;;;;;;;;16.92;63.23;99435.53;5076583;28;1479;-93
2022/06/08 03:27:09;;;;;;;;;;;;;;;16.92;63.39;99440.97;5063636;28;1844;-93
2022/06/08 03:29:36;;;;;;;;;;;;;;;16.90;63.43;99437.72;5056272;28;1228;-93
2022/06/08 03:32:02;;;;;;;;;;;;;;;16.90;63.35;99443.16;5055885;28;1314;-93
2022/06/08 03:34:29;;;;;;;;;;;;;;;16.89;63.46;99441.53;5055787;28;1206;-93
2022/06/08 03:36:55;;;;;;;;;;;;;;;16.90;63.44;99434.19;5057662;28;1983;-92
2022/06/08 03:39:22;;;;;;;;;;;;;;;16.88;63.37;99441.81;5072751;28;1278;-93
2022/06/08 03:41:48;;;;;;;;;;;;;;;16.88;63.40;99437.19;5055849;28;2093;-93
2022/06/08 03:44:15;;;;;;;;;;;;;;;16.88;63.46;99437.19;5064020;28;2262;-93
2022/06/08 03:46:42;;;;;;;;;;;;;;;16.86;63.40;99436.69;5059196;28;1300;-92
2022/06/08 03:49:08;;;;;;;;;;;;;;;16.87;63.39;99434.78;5042551;28;1371;-93
2022/06/08 03:51:35;;;;;;;;;;;;;;;16.87;63.38;99426.63;5056641;28;1176;-92
2022/06/08 03:54:01;;;;;;;;;;;;;;;16.85;63.21;99426.09;5047033;28;1490;-93
2022/06/08 03:56:28;;;;;;;;;;;;;;;16.84;63.37;99425.28;5055551;28;1985;-93
2022/06/08 03:58:54;;;;;;;;;;;;;;;16.84;63.13;99428.00;5055726;28;1266;-93
2022/06/08 04:01:21;;;;;;;;;;;;;;;16.82;63.41;99427.47;5053103;28;1444;-93
2022/06/08 04:03:51;;;;;;;;;;;;;;;16.83;63.19;99423.66;5056531;28;1119;-92
2022/06/08 04:06:17;;;;;;;;;;;;;;;16.82;63.17;99424.75;5071892;28;1183;-93
2022/06/08 04:08:44;;;;;;;;;;;;;;;16.82;63.31;99423.94;5044488;28;1257;-92
2022/06/08 04:11:10;;;;;;;;;;;;;;;16.82;63.39;99418.50;5053993;28;1192;-93
2022/06/08 04:13:37;;;;;;;;;;;;;;;16.78;63.34;99413.66;5048364;28;3518;-93
2022/06/08 04:16:03;;;;;;;;;;;;;;;16.78;63.34;99413.66;5034929;28;3779;-93
2022/06/08 04:18:30;;;;;;;;;;;;;;;16.79;63.23;99412.56;5057827;28;1758;-93
2022/06/08 04:20:57;;;;;;;;;;;;;;;16.78;63.11;99419.09;5058909;28;1659;-92
2022/06/08 04:23:23;;;;;;;;;;;;;;;16.78;63.17;99419.09;5054758;28;4092;-93
2022/06/08 04:25:49;;;;;;;;;;;;;;;16.77;63.26;99416.66;5072276;28;1201;-93
2022/06/08 04:28:17;;;;;;;;;;;;;;;16.76;63.22;99423.19;5054953;28;1273;-92
2022/06/08 04:30:43;;;;;;;;;;;;;;;16.76;63.44;99428.63;5055043;28;1607;-93
2022/06/08 04:33:10;;;;;;;;;;;;;;;16.75;63.16;99430.50;5050643;28;1221;-93
2022/06/08 04:35:36;;;;;;;;;;;;;;;16.75;63.31;99435.94;5034931;28;1887;-93
2022/06/08 04:38:03;;;;;;;;;;;;;;;16.75;63.27;99433.22;5044387;28;1208;-93
2022/06/08 04:40:29;;;;;;;;;;;;;;;16.74;63.20;99430.81;5074607;28;1238;-93
2022/06/08 04:42:56;;;;;;;;;;;;;;;16.73;63.30;99429.16;5060977;28;1257;-93
2022/06/08 04:45:22;;;;;;;;;;;;;;;16.73;63.22;99426.44;5054670;28;1293;-92
2022/06/08 04:47:49;;;;;;;;;;;;;;;16.72;63.24;99422.13;5044163;28;2614;-92
2022/06/08 04:50:15;;;;;;;;;;;;;;;16.71;63.37;99431.38;5051382;28;1234;-92
2022/06/08 04:52:42;;;;;;;;;;;;;;;16.70;63.05;99427.03;5051337;28;1972;-92
2022/06/08 04:55:08;;;;;;;;;;;;;;;16.70;63.25;99427.03;5070946;28;1181;-92
2022/06/08 04:57:37;;;;;;;;;;;;;;;16.68;63.28;99424.59;5054540;28;1983;-92
2022/06/08 05:00:04;;;;;;;;;;;;;;;16.69;63.21;99428.13;5055475;28;1218;-93
2022/06/08 05:02:47;;;;;;;;;;;;;;;16.67;63.21;99425.69;5054161;28;1148;-92
2022/06/08 05:05:14;;;;;;;;;;;;;;;16.67;63.08;99428.41;5052607;28;1367;-93
2022/06/08 05:07:41;;;;;;;;;;;;;;;16.66;63.33;99423.28;5043436;28;2281;-93
2022/06/08 05:10:07;;;;;;;;;;;;;;;16.67;63.08;99422.16;5049963;28;1339;-92
2022/06/08 05:12:36;;;;;;;;;;;;;;;16.66;63.17;99415.91;5055473;28;1044;-92
2022/06/08 05:15:02;;;;;;;;;;;;;;;16.66;63.10;99424.06;5051027;28;1413;-92
2022/06/08 05:17:31;;;;;;;;;;;;;;;16.65;63.19;99421.63;5047661;28;2827;-92
2022/06/08 05:19:57;;;;;;;;;;;;;;;16.64;63.15;99414.59;5052494;28;1897;-93
2022/06/08 05:22:24;;;;;;;;;;;;;;;16.62;63.14;99411.34;5054123;28;1196;-92
2022/06/08 05:24:50;;;;;;;;;;;;;;;16.62;63.16;99409.44;5055001;28;1677;-92
2022/06/08 05:27:17;;;;;;;;;;;;;;;16.63;63.07;99404.81;5080232;28;2206;-92
2022/06/08 05:29:44;;;;;;;;;;;;;;;16.62;63.15;99412.16;5074201;28;1186;-93
2022/06/08 05:32:11;;;;;;;;;;;;;;;16.62;63.14;99408.63;5074306;28;1299;-92
2022/06/08 05:34:37;;;;;;;;;;;;;;;16.62;63.12;99403.19;5075279;28;1027;-92
2022/06/08 05:37:03;;;;;;;;;;;;;;;16.62;63.09;99400.47;5047086;28;1909;-93
2022/06/08 05:39:30;;;;;;;;;;;;;;;16.62;63.14;99409.44;5034269;28;1378;-92
2022/06/08 05:41:56;;;;;;;;;;;;;;;16.61;63.03;99407.00;5034943;28;1027;-92
2022/06/08 05:44:23;;;;;;;;;;;;;;;16.61;63.02;99401.56;5050089;28;1209;-93
2022/06/08 05:46:50;;;;;;;;;;;;;;;16.60;62.98;99405.41;5069511;28;1917;-92
2022/06/08 05:49:16;;;;;;;;;;;;;;;16.60;62.98;99406.19;5051655;28;2063;-92
2022/06/08 05:51:43;;;;;;;;;;;;;;;16.59;63.11;99407.31;5033848;28;1318;-92
2022/06/08 05:54:10;;;;;;;;;;;;;;;16.58;63.01;99401.03;5049184;28;1394;-92
2022/06/08 05:56:36;;;;;;;;;;;;;;;16.57;62.95;99404.06;5052348;28;1998;-92
2022/06/08 05:59:03;;;;;;;;;;;;;;;16.58;62.96;99403.75;5047512;28;1967;-93
2022/06/08 06:01:30;;;;;;;;;;;;;;;16.58;62.91;99397.50;5057277;28;2246;-93
2022/06/08 06:03:59;;;;;;;;;;;;;;;16.58;62.90;99400.22;5060394;28;1655;-93
2022/06/08 06:06:25;;;;;;;;;;;;;;;16.57;62.90;99401.34;5077277;28;2108;-93
2022/06/08 06:08:52;;;;;;;;;;;;;;;16.58;63.04;99402.94;5054829;28;1383;-93
2022/06/08 06:11:19;;;;;;;;;;;;;;;16.55;63.04;99401.59;5058568;28;810;-92
2022/06/08 06:13:45;;;;;;;;;;;;;;;16.56;62.94;99403.25;5050975;28;2033;-92
2022/06/08 06:16:12;;;;;;;;;;;;;;;16.56;62.86;99408.69;5037577;28;1887;-93
2022/06/08 06:18:38;;;;;;;;;;;;;;;16.56;62.91;99407.88;5044776;28;2155;-93
2022/06/08 06:21:06;;;;;;;;;;;;;;;16.55;62.92;99414.41;5045028;28;2360;-93
2022/06/08 06:23:33;;;;;;;;;;;;;;;16.54;62.85;99402.72;5054572;28;1666;-93
2022/06/08 06:25:59;;;;;;;;;;;;;;;16.55;62.94;99406.25;5053882;28;2147;-92
2022/06/08 06:28:26;;;;;;;;;;;;;;;16.54;62.85;99407.34;5057411;28;1188;-92
2022/06/08 06:30:52;;;;;;;;;;;;;;;16.54;62.92;99396.47;5057135;28;1179;-93
2022/06/08 06:33:19;;;;;;;;;;;;;;;16.53;62.85;99398.38;5055848;28;1928;-92
2022/06/08 06:35:45;;;;;;;;;;;;;;;16.55;62.85;99406.25;5055590;28;1635;-92
2022/06/08 06:38:12;;;;;;;;;;;;;;;16.54;62.86;99408.16;5072081;28;1937;-92
2022/06/08 06:40:38;;;;;;;;;;;;;;;16.54;62.91;99407.34;5053816;28;1289;-92
2022/06/08 06:43:05;;;;;;;;;;;;;;;16.53;62.82;99403.81;5042660;28;1982;-93
2022/06/08 06:45:32;;;;;;;;;;;;;;;16.53;62.78;99406.53;5056801;28;1548;-92
2022/06/08 06:47:58;;;;;;;;;;;;;;;16.54;62.85;99407.34;5043514;28;4825;-93
2022/06/08 06:50:26;;;;;;;;;;;;;;;16.53;62.78;99400.28;5049759;28;2283;-92
2022/06/08 06:52:52;;;;;;;;;;;;;;;16.53;62.81;99406.53;5044474;28;1997;-93
2022/06/08 06:55:18;;;;;;;;;;;;;;;16.53;62.86;99401.09;5073337;28;1649;-92
2022/06/08 06:57:45;;;;;;;;;;;;;;;16.53;62.85;99401.09;5056474;28;1910;-92
2022/06/08 07:00:12;;;;;;;;;;;;;;;16.54;62.82;99397.28;5056750;28;1306;-92
2022/06/08 07:02:39;;;;;;;;;;;;;;;16.54;62.76;99394.56;5056304;28;1550;-92
2022/06/08 07:05:06;;;;;;;;;;;;;;;16.54;62.69;99391.03;5065048;28;1656;-92
2022/06/08 07:07:32;;;;;;;;;;;;;;;16.54;62.67;99393.75;5075122;28;1313;-92
2022/06/08 07:09:59;;;;;;;;;;;;;;;16.54;62.71;99388.31;5063643;28;1743;-93
2022/06/08 07:12:25;;;;;;;;;;;;;;;16.54;62.63;99391.03;5073218;28;1266;-92
2022/06/08 07:14:52;;;;;;;;;;;;;;;16.54;62.58;99394.56;5056900;28;1703;-93
2022/06/08 07:17:19;;;;;;;;;;;;;;;16.53;62.62;99390.25;5062956;28;2391;-92
2022/06/08 07:19:45;;;;;;;;;;;;;;;16.54;62.76;99396.47;5063595;28;1944;-93
2022/06/08 07:22:12;;;;;;;;;;;;;;;16.55;62.69;99395.38;5073127;28;1737;-93
2022/06/08 07:24:38;;;;;;;;;;;;;;;16.54;62.82;99394.56;5053577;28;3680;-92
2022/06/08 07:27:05;;;;;;;;;;;;;;;16.55;62.67;99395.38;5057032;28;1868;-92
2022/06/08 07:29:31;;;;;;;;;;;;;;;16.55;62.67;99395.38;5063713;28;1170;-93
2022/06/08 07:31:58;;;;;;;;;;;;;;;16.54;62.66;99396.47;5076304;28;1330;-92
2022/06/08 07:34:24;;;;;;;;;;;;;;;16.54;62.39;99400.00;5071629;28;888;-92
2022/06/08 07:36:51;;;;;;;;;;;;;;;16.55;62.59;99395.38;5055981;28;1979;-92
2022/06/08 07:39:19;;;;;;;;;;;;;;;16.55;62.49;99398.91;5056825;28;972;-92
2022/06/08 07:41:46;;;;;;;;;;;;;;;16.55;62.67;99398.09;5044161;28;1313;-92
2022/06/08 07:44:12;;;;;;;;;;;;;;;16.54;62.60;99391.84;5047824;28;1610;-92
2022/06/08 07:46:39;;;;;;;;;;;;;;;16.55;62.65;99400.81;5047296;28;1366;-92
2022/06/08 07:51:53;;;;;;;;;;;;;;;16.55;62.57;99395.38;5069592;28;1393;-93
2022/06/08 07:54:19;;;;;;;;;;;;;;;16.53;62.62;99392.94;5054752;28;1690;-92
2022/06/08 07:56:46;;;;;;;;;;;;;;;16.55;62.66;99389.94;5072162;28;1914;-93
2022/06/08 07:59:12;;;;;;;;;;;;;;;16.55;62.60;99389.94;5055871;28;1195;-93
2022/06/08 08:01:39;;;;;;;;;;;;;;;16.54;62.64;99385.59;5071354;28;1260;-92
2022/06/08 08:04:05;;;;;;;;;;;;;;;16.54;62.73;99386.41;5068441;28;1231;-93
2022/06/08 08:06:32;;;;;;;;;;;;;;;16.54;62.66;99378.25;5075744;28;1206;-93
2022/06/08 08:09:00;;;;;;;;;;;;;;;16.54;62.67;99380.97;5065684;28;1181;-92
2022/06/08 08:11:26;;;;;;;;;;;;;;;16.55;62.72;99382.59;5055096;28;1516;-92
2022/06/08 08:13:53;;;;;;;;;;;;;;;16.54;62.55;99370.09;5054144;28;1646;-92
2022/06/08 08:16:19;;;;;;;;;;;;;;;16.54;62.67;99370.09;5041040;28;1942;-92
2022/06/08 08:18:46;;;;;;;;;;;;;;;16.54;62.69;99361.94;5065881;28;1923;-92
2022/06/08 08:21:12;;;;;;;;;;;;;;;16.54;62.82;99372.81;5071479;28;1345;-92
2022/06/08 08:23:39;;;;;;;;;;;;;;;16.55;62.70;99368.19;5055220;28;2282;-92
2022/06/08 08:26:05;;;;;;;;;;;;;;;16.56;62.69;99370.63;5051415;28;2265;-92
2022/06/08 08:28:32;;;;;;;;;;;;;;;16.55;62.59;99358.13;5045583;28;3885;-92
2022/06/08 08:30:58;;;;;;;;;;;;;;;16.55;62.80;99368.19;5054630;28;1233;-92
2022/06/08 08:33:25;;;;;;;;;;;;;;;16.56;62.64;99369.84;5055230;28;1307;-92
2022/06/08 08:35:52;;;;;;;;;;;;;;;16.55;62.64;99369.00;5052656;28;1989;-91
2022/06/08 08:38:19;;;;;;;;;;;;;;;16.55;62.66;99366.28;5068726;28;1914;-92
2022/06/08 08:40:45;;;;;;;;;;;;;;;16.56;62.60;99372.56;5059794;28;1316;-92
2022/06/08 08:43:11;;;;;;;;;;;;;;;16.56;62.65;99369.84;5054680;28;1215;-93
2022/06/08 08:45:38;;;;;;;;;;;;;;;16.56;62.77;99369.84;5054645;28;1717;-92
2022/06/08 08:48:04;;;;;;;;;;;;;;;16.57;62.71;99357.84;5054696;28;1160;-93
2022/06/08 08:50:31;;;;;;;;;;;;;;;16.55;62.72;99357.31;5054502;28;1281;-92
2022/06/08 08:52:58;;;;;;;;;;;;;;;16.56;62.83;99354.31;5054506;28;1260;-92
2022/06/08 08:55:24;;;;;;;;;;;;;;;16.56;62.78;99359.75;5035237;28;1476;-92
2022/06/08 08:57:52;;;;;;;;;;;;;;;16.56;62.73;99346.19;5034188;28;2109;-93
2022/06/08 09:00:19;;;;;;;;;;;;;;;16.56;62.64;99348.91;5043750;28;1600;-92
2022/06/08 09:05:32;;;;;;;;;;;;;;;16.57;62.75;99355.13;5054151;28;1234;-92
2022/06/08 09:07:58;;;;;;;;;;;;;;;16.57;62.85;99366.00;5052545;28;1378;-93
2022/06/08 09:10:24;;;;;;;;;;;;;;;16.57;62.66;99346.97;5033709;28;1746;-92
2022/06/08 09:12:51;;;;;;;;;;;;;;;16.57;62.84;99349.69;5050852;28;1415;-92
2022/06/08 09:15:18;;;;;;;;;;;;;;;16.57;62.80;99347.78;5033991;28;1632;-93
2022/06/08 09:17:44;;;;;;;;;;;;;;;16.57;62.70;99345.06;5029804;28;4853;-92
2022/06/08 09:20:13;;;;;;;;;;;;;;;16.57;62.76;99339.63;5034110;28;1966;-93
2022/06/08 09:22:39;;;;;;;;;;;;;;;16.58;62.82;99348.59;5016723;28;2299;-92
2022/06/08 09:25:07;;;;;;;;;;;;;;;16.57;62.74;99336.91;5045404;28;1947;-92
2022/06/08 09:27:34;;;;;;;;;;;;;;;16.58;62.76;99337.72;5032434;28;1400;-92
2022/06/08 09:30:01;;;;;;;;;;;;;;;16.58;62.71;99337.72;5015000;28;1523;-92
2022/06/08 09:32:27;;;;;;;;;;;;;;;16.58;62.85;99337.72;5031856;28;2723;-92
2022/06/08 09:34:54;;;;;;;;;;;;;;;16.58;62.82;99338.53;5043936;28;1658;-92
2022/06/08 09:37:23;;;;;;;;;;;;;;;16.58;62.80;99343.97;5030722;28;1991;-92
2022/06/08 09:39:50;;;;;;;;;;;;;;;16.60;62.91;99342.88;5041956;28;1200;-92
2022/06/08 09:42:16;;;;;;;;;;;;;;;16.60;62.89;99343.69;5015423;28;953;-92
2022/06/08 09:44:43;;;;;;;;;;;;;;;16.60;62.85;99342.88;5046452;28;1703;-92
2022/06/08 09:52:38;;;;;;;;;;;;;;;16.61;62.78;99342.56;5033774;28;1489;-92
2022/06/08 09:55:05;;;;;;;;;;;;;;;16.62;62.89;99356.97;5061288;28;1918;-92
2022/06/08 09:57:32;;;;;;;;;;;;;;;16.61;62.87;99358.88;5059573;28;1956;-92
2022/06/08 09:59:58;;;;;;;;;;;;;;;16.62;62.81;99359.69;5048897;28;2306;-92
2022/06/08 10:02:25;;;;;;;;;;;;;;;16.61;62.75;99358.88;5070668;28;1425;-93
2022/06/08 10:04:52;;;;;;;;;;;;;;;16.63;62.89;99359.41;5056454;28;1748;-92
2022/06/08 10:07:19;;;;;;;;;;;;;;;16.62;62.90;99359.69;5074108;28;1262;-92
2022/06/08 10:09:45;;;;;;;;;;;;;;;16.62;62.84;99363.25;5075047;28;964;-92
2022/06/08 10:12:13;;;;;;;;;;;;;;;16.62;63.09;99355.09;5053860;28;1982;-91
2022/06/08 10:14:39;;;;;;;;;;;;;;;16.62;62.93;99355.09;5072717;28;1454;-92
2022/06/08 10:17:05;;;;;;;;;;;;;;;16.63;62.83;99355.91;5056323;28;1985;-92
2022/06/08 10:19:32;;;;;;;;;;;;;;;16.63;62.87;99358.59;5070956;28;2072;-92
2022/06/08 10:21:58;;;;;;;;;;;;;;;16.63;63.05;99353.16;5069957;28;2066;-92
2022/06/08 10:24:25;;;;;;;;;;;;;;;16.63;62.96;99350.44;5072681;28;1787;-93
2022/06/08 10:26:51;;;;;;;;;;;;;;;16.63;62.82;99356.69;5068844;28;2143;-92
2022/06/08 10:29:18;;;;;;;;;;;;;;;16.62;62.93;99344.22;5055410;28;1405;-92
2022/06/08 10:31:44;;;;;;;;;;;;;;;16.63;63.00;99351.25;5055522;28;1402;-93
2022/06/08 10:34:11;;;;;;;;;;;;;;;16.63;62.96;99348.53;5059308;28;2727;-92
2022/06/08 10:36:37;;;;;;;;;;;;;;;16.63;63.01;99348.53;5042012;28;1462;-94
2022/06/08 10:39:04;;;;;;;;;;;;;;;16.63;62.95;99356.69;5057165;28;1973;-94
2022/06/08 10:44:15;;;;;;;;;;;;;;;16.63;62.96;99348.53;5077902;28;1463;-93
2022/06/08 10:46:42;;;;;;;;;;;;;;;16.64;62.95;99350.16;5075939;28;1348;-93
2022/06/08 10:49:08;;;;;;;;;;;;;;;16.64;63.04;99342.00;5076087;28;1774;-92
2022/06/08 10:51:37;;;;;;;;;;;;;;;16.65;62.99;99342.81;5055728;28;1851;-90
2022/06/08 10:56:48;;;;;;;;;;;;;;;16.64;62.98;99342.00;5042484;28;1349;-92
2022/06/08 10:59:14;;;;;;;;;;;;;;;16.65;63.10;99340.91;5067921;28;2041;-92
2022/06/08 11:01:41;;;;;;;;;;;;;;;16.65;62.92;99340.91;5058531;28;1427;-92
2022/06/08 11:04:11;;;;;;;;;;;;;;;16.65;63.18;99337.38;5054050;28;1835;-92
2022/06/08 11:06:37;;;;;;;;;;;;;;;16.66;63.11;99339.00;5057898;28;940;-92
2022/06/08 11:09:04;;;;;;;;;;;;;;;16.66;63.08;99336.28;5057079;28;1381;-92
2022/06/08 11:11:30;;;;;;;;;;;;;;;16.66;63.10;99347.16;5058713;28;1555;-93
2022/06/08 11:13:57;;;;;;;;;;;;;;;16.67;63.01;99349.56;5077502;28;976;-92
2022/06/08 11:16:24;;;;;;;;;;;;;;;16.67;63.14;99348.75;5075726;28;1436;-92
2022/06/08 11:18:50;;;;;;;;;;;;;;;16.68;63.03;99356.66;5076088;28;1983;-93
2022/06/08 11:21:17;;;;;;;;;;;;;;;16.67;63.05;99356.91;5062261;28;1326;-92
2022/06/08 11:23:43;;;;;;;;;;;;;;;16.68;63.07;99356.66;5039780;28;1369;-93
2022/06/08 11:26:10;;;;;;;;;;;;;;;16.68;63.10;99351.22;5056991;28;1171;-92
2022/06/08 11:28:39;;;;;;;;;;;;;;;16.68;63.04;99351.22;5061501;28;2074;-92
2022/06/08 11:31:06;;;;;;;;;;;;;;;16.70;63.17;99348.19;5048717;28;2181;-92
2022/06/08 11:33:32;;;;;;;;;;;;;;;16.69;63.05;99343.84;5059547;28;1163;-92
2022/06/08 11:35:59;;;;;;;;;;;;;;;16.70;63.08;99340.84;5069142;28;1376;-93
2022/06/08 11:38:25;;;;;;;;;;;;;;;16.70;63.00;99340.03;5058878;28;3537;-93
2022/06/08 11:40:52;;;;;;;;;;;;;;;16.70;63.11;99342.75;5058624;28;1461;-93
2022/06/08 11:43:18;;;;;;;;;;;;;;;16.71;63.17;99345.19;5076163;28;1191;-94
2022/06/08 11:45:47;;;;;;;;;;;;;;;16.72;63.07;99343.28;5054486;28;1551;-94
2022/06/08 11:48:14;;;;;;;;;;;;;;;16.71;63.24;99347.09;5053557;28;4458;-93
2022/06/08 11:50:40;;;;;;;;;;;;;;;16.74;63.06;99351.97;5053902;28;2548;-92
2022/06/08 11:53:07;;;;;;;;;;;;;;;16.73;63.12;99351.13;5070198;28;2508;-93
2022/06/08 11:55:33;;;;;;;;;;;;;;;16.74;63.17;99346.53;5057576;28;1919;-93
2022/06/08 11:58:00;;;;;;;;;;;;;;;16.74;63.18;99351.97;5058681;28;1918;-92
2022/06/08 12:00:26;;;;;;;;;;;;;;;16.76;63.18;99347.06;5075114;28;1333;-92
2022/06/08 12:02:53;;;;;;;;;;;;;;;16.76;63.20;99357.94;5075719;28;1316;-92
2022/06/08 12:05:20;;;;;;;;;;;;;;;16.76;63.12;99347.06;5076095;28;2021;-93
2022/06/08 12:07:47;;;;;;;;;;;;;;;16.77;63.01;99348.69;5056782;28;1579;-93
2022/06/08 12:10:14;;;;;;;;;;;;;;;16.77;63.31;99346.78;5056131;28;2058;-92
2022/06/08 12:12:40;;;;;;;;;;;;;;;16.78;63.11;99342.16;5075128;28;1365;-93
2022/06/08 12:15:07;;;;;;;;;;;;;;;16.78;63.28;99340.22;5056357;28;1249;-93
2022/06/08 12:17:33;;;;;;;;;;;;;;;16.79;63.20;99338.31;5070193;28;3020;-94
2022/06/08 12:20:02;;;;;;;;;;;;;;;16.78;63.14;99334.81;5054544;28;1440;-93
2022/06/08 12:22:29;;;;;;;;;;;;;;;16.79;63.23;99331.00;5058723;28;1087;-93
2022/06/08 12:24:55;;;;;;;;;;;;;;;16.79;63.29;99331.00;5074502;28;1461;-93
2022/06/08 12:27:22;;;;;;;;;;;;;;;16.82;63.17;99331.50;5058087;28;1603;-93
2022/06/08 12:29:50;;;;;;;;;;;;;;;16.82;63.22;99323.34;5054725;28;1555;-93
2022/06/08 12:32:16;;;;;;;;;;;;;;;16.82;63.25;99317.91;5072687;28;1624;-93
2022/06/08 12:34:43;;;;;;;;;;;;;;;16.83;63.34;99322.25;5069112;28;1243;-93
2022/06/08 12:37:09;;;;;;;;;;;;;;;16.84;63.12;99323.88;5063692;28;3801;-92
2022/06/08 12:39:36;;;;;;;;;;;;;;;16.85;63.23;99330.91;5048207;28;3458;-94
2022/06/08 12:42:02;;;;;;;;;;;;;;;16.85;63.04;99345.31;5051781;28;2278;-93
2022/06/08 12:44:31;;;;;;;;;;;;;;;16.85;63.21;99336.34;5058106;28;2100;-93
2022/06/08 12:46:58;;;;;;;;;;;;;;;16.87;63.37;99342.31;5065243;28;1759;-93
2022/06/08 12:49:25;;;;;;;;;;;;;;;16.88;63.23;99335.78;5058039;28;1540;-93
2022/06/08 12:51:51;;;;;;;;;;;;;;;16.87;63.24;99340.41;5056131;28;1860;-93
2022/06/08 12:54:18;;;;;;;;;;;;;;;16.88;63.35;99344.72;5050868;28;1384;-93
2022/06/08 12:56:44;;;;;;;;;;;;;;;16.89;63.41;99342.84;5050979;28;1685;-93
2022/06/08 12:59:11;;;;;;;;;;;;;;;16.91;63.28;99340.63;5062202;28;2089;-93
2022/06/08 13:01:38;;;;;;;;;;;;;;;16.91;63.30;99343.34;5046202;28;2314;-93
2022/06/08 13:04:04;;;;;;;;;;;;;;;16.92;63.29;99343.06;5052453;28;2071;-93
2022/06/08 13:06:32;;;;;;;;;;;;;;;16.93;63.31;99341.16;5071246;28;1740;-94
2022/06/08 13:08:58;;;;;;;;;;;;;;;16.94;63.43;99340.03;5052068;28;2016;-93
2022/06/08 13:11:25;;;;;;;;;;;;;;;16.96;63.45;99346.00;5051206;28;1532;-93
2022/06/08 13:13:54;;;;;;;;;;;;;;;16.96;63.37;99351.44;5059759;28;1993;-93